createdAt,value
2019-03-03T00:00:22.266Z,9.90
2019-03-03T00:02:51.117Z,9.80
2019-03-03T00:05:19.530Z,9.80
2019-03-03T00:07:48.122Z,9.80
2019-03-03T00:10:16.615Z,9.80
2019-03-03T00:12:45.151Z,9.70
2019-03-03T00:15:13.770Z,9.80
2019-03-03T00:17:42.362Z,9.80
2019-03-03T00:20:15.543Z,9.80
2019-03-03T00:22:44.635Z,9.80
2019-03-03T00:25:15.145Z,9.80
2019-03-03T00:27:44.379Z,9.80
2019-03-03T00:30:17.015Z,9.80
2019-03-03T00:32:49.077Z,9.80
2019-03-03T00:35:17.664Z,9.80
2019-03-03T00:37:54.279Z,9.80
2019-03-03T00:40:40.502Z,9.80
2019-03-03T00:43:19.739Z,9.90
2019-03-03T00:45:53.302Z,9.80
2019-03-03T00:48:26.105Z,9.90
2019-03-03T00:51:08.403Z,9.90
2019-03-03T00:53:44.504Z,9.90
2019-03-03T00:56:15.386Z,9.90
2019-03-03T00:58:54.493Z,9.90
2019-03-03T01:01:25.364Z,9.90
2019-03-03T01:03:55.498Z,9.90
2019-03-03T01:06:25.625Z,9.90
2019-03-03T01:09:13.969Z,10.00
2019-03-03T01:11:46.782Z,10.00
2019-03-03T01:14:20.654Z,10.00
2019-03-03T01:17:07.359Z,10.00
2019-03-03T01:19:47.198Z,10.00
2019-03-03T01:22:20.436Z,10.10
2019-03-03T01:24:58.246Z,10.10
2019-03-03T01:27:26.913Z,10.10
2019-03-03T01:29:56.325Z,10.10
2019-03-03T01:32:25.772Z,10.10
2019-03-03T01:34:54.249Z,10.10
2019-03-03T01:37:22.754Z,10.10
2019-03-03T01:39:51.533Z,10.20
2019-03-03T01:42:19.983Z,10.20
2019-03-03T01:44:48.463Z,10.10
2019-03-03T01:47:16.922Z,10.10
2019-03-03T01:49:45.946Z,10.20
2019-03-03T01:52:14.402Z,10.10
2019-03-03T01:54:42.845Z,10.20
2019-03-03T01:57:25.201Z,10.20
2019-03-03T01:59:53.671Z,10.20
2019-03-03T02:02:23.235Z,10.30
2019-03-03T02:04:51.938Z,10.20
2019-03-03T02:07:20.364Z,10.20
2019-03-03T02:09:48.966Z,10.20
2019-03-03T02:12:18.328Z,10.30
2019-03-03T02:14:46.775Z,10.20
2019-03-03T02:17:15.198Z,10.20
2019-03-03T02:19:44.847Z,10.20
2019-03-03T02:22:13.323Z,10.20
2019-03-03T02:24:44.840Z,10.20
2019-03-03T02:27:13.911Z,10.20
2019-03-03T02:29:42.326Z,10.10
2019-03-03T02:32:11.314Z,10.10
2019-03-03T02:34:41.170Z,10.10
2019-03-03T02:37:09.615Z,10.10
2019-03-03T02:39:38.127Z,10.10
2019-03-03T02:42:07.051Z,10.10
2019-03-03T02:44:35.564Z,10.00
2019-03-03T02:47:04.037Z,10.00
2019-03-03T02:49:32.875Z,10.00
2019-03-03T02:52:01.362Z,10.00
2019-03-03T02:54:29.850Z,10.10
2019-03-03T02:56:58.638Z,10.10
2019-03-03T02:59:27.076Z,10.00
2019-03-03T03:01:57.119Z,10.00
2019-03-03T03:04:26.607Z,10.00
2019-03-03T03:06:59.788Z,10.00
2019-03-03T03:09:33.068Z,10.00
2019-03-03T03:12:03.212Z,10.10
2019-03-03T03:14:36.546Z,10.10
2019-03-03T03:17:09.491Z,10.10
2019-03-03T03:19:42.600Z,10.10
2019-03-03T03:22:12.690Z,10.10
2019-03-03T03:24:48.953Z,10.10
2019-03-03T03:27:35.467Z,10.10
2019-03-03T03:30:23.301Z,10.10
2019-03-03T03:32:56.134Z,10.20
2019-03-03T03:35:26.579Z,10.10
2019-03-03T03:37:56.932Z,10.10
2019-03-03T03:40:29.776Z,10.10
2019-03-03T03:43:02.527Z,10.00
2019-03-03T03:45:39.201Z,9.90
2019-03-03T03:48:25.961Z,9.80
2019-03-03T03:51:07.834Z,9.80
2019-03-03T03:53:54.854Z,9.80
2019-03-03T03:56:40.246Z,9.80
2019-03-03T03:59:16.409Z,9.80
2019-03-03T04:01:58.831Z,9.70
2019-03-03T04:04:37.798Z,9.70
2019-03-03T04:07:13.635Z,9.60
2019-03-03T04:09:47.219Z,9.50
2019-03-03T04:12:23.590Z,9.50
2019-03-03T04:15:09.287Z,9.50
2019-03-03T04:17:45.310Z,9.50
2019-03-03T04:20:33.981Z,9.50
2019-03-03T04:23:10.012Z,9.50
2019-03-03T04:25:56.442Z,9.50
2019-03-03T04:28:29.301Z,9.50
2019-03-03T04:31:15.736Z,9.60
2019-03-03T04:33:45.837Z,9.60
2019-03-03T04:36:16.001Z,9.60
2019-03-03T04:38:52.410Z,9.60
2019-03-03T04:41:38.613Z,9.70
2019-03-03T04:44:08.700Z,9.70
2019-03-03T04:46:39.158Z,9.80
2019-03-03T04:49:09.248Z,9.80
2019-03-03T04:51:45.430Z,9.90
2019-03-03T04:54:31.833Z,9.90
2019-03-03T04:57:14.969Z,10.00
2019-03-03T05:00:03.481Z,10.10
2019-03-03T05:02:39.769Z,10.10
2019-03-03T05:05:16.318Z,10.30
2019-03-03T05:08:02.899Z,10.30
2019-03-03T05:10:47.870Z,10.30
2019-03-03T05:13:18.254Z,10.30
2019-03-03T05:15:48.321Z,10.40
2019-03-03T05:18:18.418Z,10.40
2019-03-03T05:20:48.709Z,10.50
2019-03-03T05:23:17.150Z,10.50
2019-03-03T05:25:45.751Z,10.40
2019-03-03T05:28:14.584Z,10.50
2019-03-03T05:30:43.107Z,10.40
2019-03-03T05:33:11.551Z,10.40
2019-03-03T05:35:40.334Z,10.50
2019-03-03T05:38:08.780Z,10.50
2019-03-03T05:40:37.391Z,10.50
2019-03-03T05:43:06.007Z,10.50
2019-03-03T05:45:34.531Z,10.50
2019-03-03T05:48:02.959Z,10.50
2019-03-03T05:50:37.178Z,10.60
2019-03-03T05:53:05.664Z,10.60
2019-03-03T05:55:34.097Z,10.60
2019-03-03T05:58:02.772Z,10.60
2019-03-03T06:00:31.226Z,10.60
2019-03-03T06:03:00.321Z,10.60
2019-03-03T06:05:28.917Z,10.60
2019-03-03T06:07:58.094Z,10.70
2019-03-03T06:10:26.606Z,10.70
2019-03-03T06:12:55.742Z,10.70
2019-03-03T06:15:24.350Z,10.70
2019-03-03T06:17:52.821Z,10.70
2019-03-03T06:20:21.366Z,10.70
2019-03-03T06:22:49.908Z,10.70
2019-03-03T06:25:18.420Z,10.70
2019-03-03T06:27:47.146Z,10.80
2019-03-03T06:30:16.213Z,10.70
2019-03-03T06:32:44.725Z,10.60
2019-03-03T06:35:13.531Z,10.50
2019-03-03T06:37:42.093Z,10.50
2019-03-03T06:40:11.676Z,10.50
2019-03-03T06:42:40.592Z,10.50
2019-03-03T06:45:12.005Z,10.50
2019-03-03T06:47:40.457Z,10.50
2019-03-03T06:50:11.613Z,10.60
2019-03-03T06:52:40.062Z,10.60
2019-03-03T06:55:08.974Z,10.60
2019-03-03T06:57:38.058Z,10.60
2019-03-03T07:00:16.918Z,10.70
2019-03-03T07:02:45.582Z,10.70
2019-03-03T07:05:14.122Z,10.70
2019-03-03T07:07:42.646Z,10.80
2019-03-03T07:10:13.386Z,10.80
2019-03-03T07:12:41.895Z,10.80
2019-03-03T07:15:15.574Z,10.90
2019-03-03T07:17:44.009Z,10.90
2019-03-03T07:20:13.380Z,10.90
2019-03-03T07:22:42.065Z,11.00
2019-03-03T07:25:14.258Z,11.00
2019-03-03T07:27:43.068Z,11.00
2019-03-03T07:30:15.801Z,11.00
2019-03-03T07:32:49.388Z,11.10
2019-03-03T07:35:17.993Z,11.10
2019-03-03T07:37:46.504Z,11.10
2019-03-03T07:40:15.098Z,11.10
2019-03-03T07:42:43.578Z,11.10
2019-03-03T07:45:14.438Z,11.10
2019-03-03T07:47:43.075Z,11.10
2019-03-03T07:50:11.726Z,11.10
2019-03-03T07:52:40.175Z,11.20
2019-03-03T07:55:12.164Z,11.20
2019-03-03T07:57:39.837Z,11.20
2019-03-03T08:00:13.700Z,11.20
2019-03-03T08:02:42.191Z,11.30
2019-03-03T08:05:12.639Z,11.30
2019-03-03T08:07:41.294Z,11.30
2019-03-03T08:10:16.408Z,11.30
2019-03-03T08:12:45.181Z,11.30
2019-03-03T08:15:17.458Z,11.30
2019-03-03T08:17:46.199Z,11.20
2019-03-03T08:20:15.383Z,11.20
2019-03-03T08:22:43.877Z,11.20
2019-03-03T08:25:13.583Z,11.20
2019-03-03T08:27:42.163Z,11.20
2019-03-03T08:30:16.195Z,11.10
2019-03-03T08:32:44.702Z,11.10
2019-03-03T08:35:22.470Z,10.90
2019-03-03T08:37:50.994Z,10.90
2019-03-03T08:40:19.385Z,10.80
2019-03-03T08:42:55.714Z,10.70
2019-03-03T08:45:29.919Z,10.70
2019-03-03T08:48:18.338Z,10.60
2019-03-03T08:50:54.181Z,10.60
2019-03-03T08:53:30.430Z,10.60
2019-03-03T08:56:06.680Z,10.50
2019-03-03T08:58:54.008Z,10.50
2019-03-03T09:01:24.246Z,10.40
2019-03-03T09:04:01.390Z,10.40
2019-03-03T09:06:48.041Z,10.40
2019-03-03T09:09:21.122Z,10.50
2019-03-03T09:11:51.242Z,10.50
2019-03-03T09:14:24.433Z,10.50
2019-03-03T09:16:57.223Z,10.50
2019-03-03T09:19:36.614Z,10.50
2019-03-03T09:22:10.396Z,10.60
2019-03-03T09:24:57.100Z,10.50
2019-03-03T09:27:30.247Z,10.60
2019-03-03T09:30:17.141Z,10.60
2019-03-03T09:32:47.265Z,10.60
2019-03-03T09:35:26.811Z,10.60
2019-03-03T09:38:16.615Z,10.60
2019-03-03T09:40:46.822Z,10.60
2019-03-03T09:43:16.891Z,10.60
2019-03-03T09:48:34.731Z,10.50
2019-03-03T09:51:04.871Z,10.60
2019-03-03T09:53:51.627Z,10.60
2019-03-03T09:56:27.250Z,10.60
2019-03-03T09:59:03.726Z,10.70
2019-03-03T10:01:33.894Z,10.70
2019-03-03T10:04:10.340Z,10.80
2019-03-03T10:06:57.098Z,10.70
2019-03-03T10:09:43.626Z,10.70
2019-03-03T10:12:16.765Z,10.70
2019-03-03T10:14:50.647Z,10.70
2019-03-03T10:17:23.516Z,10.70
2019-03-03T10:19:57.143Z,10.70
2019-03-03T10:22:27.257Z,10.70
2019-03-03T10:25:01.133Z,10.70
2019-03-03T10:27:37.189Z,10.70
2019-03-03T10:30:24.947Z,10.70
2019-03-03T10:33:11.079Z,10.70
2019-03-03T10:35:53.960Z,10.70
2019-03-03T10:38:39.548Z,10.70
2019-03-03T10:41:19.609Z,10.80
2019-03-03T10:43:59.218Z,10.80
2019-03-03T10:46:33.388Z,10.80
2019-03-03T10:49:06.912Z,10.80
2019-03-03T10:51:43.418Z,10.80
2019-03-03T10:54:13.534Z,10.80
2019-03-03T10:56:43.643Z,10.90
2019-03-03T10:59:19.803Z,10.90
2019-03-03T11:01:50.132Z,10.90
2019-03-03T11:04:29.683Z,11.00
2019-03-03T11:07:02.516Z,11.00
2019-03-03T11:09:44.296Z,11.00
2019-03-03T11:12:29.529Z,11.10
2019-03-03T11:15:05.810Z,11.10
2019-03-03T11:17:38.752Z,11.10
2019-03-03T11:20:10.135Z,11.20
2019-03-03T11:22:53.823Z,11.20
2019-03-03T11:25:24.144Z,11.20
2019-03-03T11:28:11.031Z,11.20
2019-03-03T11:30:42.451Z,11.20
2019-03-03T11:33:29.728Z,11.20
2019-03-03T11:36:00.345Z,11.20
2019-03-03T11:38:39.773Z,11.20
2019-03-03T11:41:15.941Z,11.30
2019-03-03T11:44:01.706Z,11.30
2019-03-03T11:46:31.978Z,11.30
2019-03-03T11:49:02.446Z,11.40
2019-03-03T11:51:35.179Z,11.40
2019-03-03T11:54:06.734Z,11.50
2019-03-03T11:56:43.751Z,11.50
2019-03-03T11:59:23.575Z,11.60
2019-03-03T12:01:56.774Z,11.60
2019-03-03T12:04:44.612Z,11.60
2019-03-03T12:07:15.269Z,11.60
2019-03-03T12:09:48.844Z,11.70
2019-03-03T12:12:22.820Z,11.70
2019-03-03T12:14:56.434Z,11.70
2019-03-03T12:17:39.382Z,11.70
2019-03-03T12:20:17.974Z,11.70
2019-03-03T12:22:50.452Z,11.80
2019-03-03T12:25:21.791Z,11.80
2019-03-03T12:27:58.608Z,11.80
2019-03-03T12:30:29.650Z,11.90
2019-03-03T12:33:00.625Z,11.90
2019-03-03T12:35:31.503Z,11.90
2019-03-03T12:38:01.667Z,11.90
2019-03-03T12:40:31.828Z,11.90
2019-03-03T12:43:01.951Z,12.00
2019-03-03T12:45:36.026Z,12.00
2019-03-03T12:48:22.726Z,12.00
2019-03-03T12:50:53.042Z,12.00
2019-03-03T12:53:34.884Z,12.00
2019-03-03T12:56:14.309Z,12.00
2019-03-03T12:58:47.292Z,12.10
2019-03-03T13:01:26.434Z,12.10
2019-03-03T13:03:56.685Z,12.10
2019-03-03T13:06:46.408Z,12.10
2019-03-03T13:09:28.523Z,12.10
2019-03-03T13:12:14.491Z,12.20
2019-03-03T13:14:56.811Z,12.20
2019-03-03T13:17:47.790Z,12.20
2019-03-03T13:20:18.946Z,12.20
2019-03-03T13:23:03.897Z,12.20
2019-03-03T13:25:42.215Z,12.20
2019-03-03T13:28:21.093Z,12.20
2019-03-03T13:31:08.382Z,12.20
2019-03-03T13:33:54.576Z,12.30
2019-03-03T13:36:41.426Z,12.30
2019-03-03T13:39:13.887Z,12.30
2019-03-03T13:41:47.846Z,12.30
2019-03-03T13:44:17.759Z,12.30
2019-03-03T13:46:47.019Z,12.20
2019-03-03T13:49:17.208Z,12.20
2019-03-03T13:51:46.549Z,12.20
2019-03-03T13:54:15.846Z,12.20
2019-03-03T13:56:45.724Z,12.20
2019-03-03T13:59:14.951Z,12.10
2019-03-03T14:01:44.077Z,12.20
2019-03-03T14:04:19.865Z,12.10
2019-03-03T14:06:49.035Z,12.10
2019-03-03T14:09:18.209Z,12.10
2019-03-03T14:11:48.035Z,12.10
2019-03-03T14:14:17.465Z,12.10
2019-03-03T14:16:46.315Z,12.10
2019-03-03T14:19:15.220Z,12.10
2019-03-03T14:21:43.777Z,12.10
2019-03-03T14:24:12.256Z,12.10
2019-03-03T14:26:40.980Z,12.10
2019-03-03T14:29:09.508Z,12.20
2019-03-03T14:31:37.939Z,12.20
2019-03-03T14:34:06.734Z,12.20
2019-03-03T14:36:35.336Z,12.20
2019-03-03T14:39:05.106Z,12.20
2019-03-03T14:41:34.016Z,12.20
2019-03-03T14:44:02.951Z,12.20
2019-03-03T14:46:31.829Z,12.20
2019-03-03T14:49:00.430Z,12.20
2019-03-03T14:51:28.962Z,12.30
2019-03-03T14:53:57.488Z,12.30
2019-03-03T14:56:26.371Z,12.30
2019-03-03T14:58:55.010Z,12.30
2019-03-03T15:01:23.583Z,12.30
2019-03-03T15:03:52.310Z,12.30
2019-03-03T15:06:24.387Z,12.30
2019-03-03T15:08:51.154Z,12.30
2019-03-03T15:11:22.583Z,12.30
2019-03-03T15:13:51.179Z,12.30
2019-03-03T15:16:19.803Z,12.40
2019-03-03T15:18:49.092Z,12.40
2019-03-03T15:21:24.828Z,12.40
2019-03-03T15:23:47.870Z,12.40
2019-03-03T15:26:16.939Z,12.40
2019-03-03T15:28:45.551Z,12.40
2019-03-03T15:31:14.160Z,12.40
2019-03-03T15:33:43.086Z,12.50
2019-03-03T15:36:11.633Z,12.50
2019-03-03T15:38:40.257Z,12.50
2019-03-03T15:41:09.001Z,12.50
2019-03-03T15:43:37.536Z,12.50
2019-03-03T15:46:06.147Z,12.50
2019-03-03T15:48:34.782Z,12.50
2019-03-03T15:51:03.307Z,12.50
2019-03-03T15:53:31.782Z,12.50
2019-03-03T15:56:00.651Z,12.50
2019-03-03T15:58:29.256Z,12.60
2019-03-03T16:00:57.960Z,12.60
2019-03-03T16:03:26.784Z,12.60
2019-03-03T16:05:55.284Z,12.60
2019-03-03T16:08:23.992Z,12.60
2019-03-03T16:10:52.991Z,12.60
2019-03-03T16:13:21.581Z,12.60
2019-03-03T16:15:50.029Z,12.60
2019-03-03T16:18:18.809Z,12.60
2019-03-03T16:20:47.274Z,12.70
2019-03-03T16:23:15.799Z,12.60
2019-03-03T16:25:44.686Z,12.70
2019-03-03T16:28:13.169Z,12.70
2019-03-03T16:30:41.641Z,12.70
2019-03-03T16:33:19.801Z,12.60
2019-03-03T16:35:49.231Z,12.60
2019-03-03T16:38:18.179Z,12.70
2019-03-03T16:40:46.725Z,12.60
2019-03-03T16:43:15.200Z,12.70
2019-03-03T16:45:44.286Z,12.70
2019-03-03T16:48:12.985Z,12.70
2019-03-03T16:50:41.655Z,12.70
2019-03-03T16:53:10.276Z,12.70
2019-03-03T16:55:38.796Z,12.70
2019-03-03T16:58:07.532Z,12.80
2019-03-03T17:00:36.099Z,12.80
2019-03-03T17:03:04.826Z,12.80
2019-03-03T17:05:33.366Z,12.80
2019-03-03T17:08:01.846Z,12.80
2019-03-03T17:10:30.940Z,12.80
2019-03-03T17:12:59.506Z,12.80
2019-03-03T17:15:29.268Z,12.80
2019-03-03T17:17:58.115Z,12.80
2019-03-03T17:20:26.638Z,12.80
2019-03-03T17:22:55.096Z,12.80
2019-03-03T17:25:26.381Z,12.80
2019-03-03T17:27:54.894Z,12.80
2019-03-03T17:30:24.756Z,12.80
2019-03-03T17:32:53.768Z,12.90
2019-03-03T17:35:22.380Z,12.80
2019-03-03T17:37:50.936Z,12.80
2019-03-03T17:40:23.708Z,12.90
2019-03-03T17:42:52.807Z,12.90
2019-03-03T17:45:22.329Z,12.90
2019-03-03T17:47:51.653Z,12.80
2019-03-03T17:50:29.564Z,12.90
2019-03-03T17:52:58.333Z,12.90
2019-03-03T17:55:27.341Z,12.80
2019-03-03T17:57:55.963Z,12.80
2019-03-03T18:00:27.467Z,12.80
2019-03-03T18:02:56.069Z,12.80
2019-03-03T18:05:24.572Z,12.80
2019-03-03T18:07:54.624Z,12.80
2019-03-03T18:10:23.516Z,12.80
2019-03-03T18:12:52.108Z,12.70
2019-03-03T18:15:23.566Z,12.80
2019-03-03T18:17:52.372Z,12.80
2019-03-03T18:20:32.354Z,12.80
2019-03-03T18:23:00.950Z,12.80
2019-03-03T18:25:29.461Z,12.80
2019-03-03T18:28:03.412Z,12.80
2019-03-03T18:30:31.968Z,12.80
2019-03-03T18:33:00.434Z,12.80
2019-03-03T18:35:29.434Z,12.80
2019-03-03T18:37:57.902Z,12.80
2019-03-03T18:40:26.857Z,12.80
2019-03-03T18:42:55.608Z,12.80
2019-03-03T18:45:24.175Z,12.90
2019-03-03T18:47:52.702Z,12.90
2019-03-03T18:50:31.093Z,12.90
2019-03-03T18:53:00.132Z,12.90
2019-03-03T18:55:28.996Z,12.90
2019-03-03T18:58:07.574Z,12.90
2019-03-03T19:00:36.163Z,12.90
2019-03-03T19:03:05.635Z,12.90
2019-03-03T19:05:34.308Z,12.90
2019-03-03T19:08:04.270Z,12.90
2019-03-03T19:10:35.152Z,12.90
2019-03-03T19:13:05.308Z,12.80
2019-03-03T19:15:33.897Z,12.90
2019-03-03T19:18:02.442Z,12.80
2019-03-03T19:20:31.116Z,12.80
2019-03-03T19:22:59.555Z,12.70
2019-03-03T19:25:27.989Z,12.70
2019-03-03T19:27:56.843Z,12.70
2019-03-03T19:30:29.434Z,12.70
2019-03-03T19:33:17.865Z,12.70
2019-03-03T19:35:46.482Z,12.70
2019-03-03T19:38:15.156Z,12.70
2019-03-03T19:40:43.791Z,12.70
2019-03-03T19:43:12.271Z,12.80
2019-03-03T19:45:52.282Z,12.70
2019-03-03T19:48:20.812Z,12.70
2019-03-03T19:50:49.240Z,12.70
2019-03-03T19:53:17.998Z,12.60
2019-03-03T19:55:46.915Z,12.60
2019-03-03T19:58:15.331Z,12.60
2019-03-03T20:00:44.980Z,12.60
2019-03-03T20:03:13.517Z,12.60
2019-03-03T20:05:42.215Z,12.60
2019-03-03T20:08:13.189Z,12.60
2019-03-03T20:10:41.759Z,12.60
2019-03-03T20:13:10.269Z,12.80
2019-03-03T20:15:39.483Z,12.90
2019-03-03T20:18:09.942Z,12.90
2019-03-03T20:20:39.131Z,13.00
2019-03-03T20:23:07.995Z,13.00
2019-03-03T20:25:36.445Z,13.00
2019-03-03T20:28:04.999Z,13.00
2019-03-03T20:30:34.192Z,13.00
2019-03-03T20:33:02.675Z,13.00
2019-03-03T20:35:31.090Z,13.00
2019-03-03T20:37:59.706Z,13.00
2019-03-03T20:40:28.941Z,13.00
2019-03-03T20:42:57.479Z,13.00
2019-03-03T20:45:30.621Z,13.10
2019-03-03T20:47:59.191Z,13.00
2019-03-03T20:50:27.965Z,13.10
2019-03-03T20:52:56.835Z,13.10
2019-03-03T20:55:26.586Z,13.20
2019-03-03T20:57:55.138Z,13.20
2019-03-03T21:00:32.050Z,13.20
2019-03-03T21:03:00.622Z,13.20
2019-03-03T21:05:29.044Z,13.20
2019-03-03T21:07:57.755Z,13.20
2019-03-03T21:10:30.422Z,13.30
2019-03-03T21:12:59.139Z,13.30
2019-03-03T21:15:27.722Z,13.30
2019-03-03T21:17:56.244Z,13.30
2019-03-03T21:20:25.203Z,13.30
2019-03-03T21:22:53.735Z,13.30
2019-03-03T21:25:22.296Z,13.20
2019-03-03T21:27:50.959Z,13.20
2019-03-03T21:30:27.287Z,13.20
2019-03-03T21:32:56.211Z,13.20
2019-03-03T21:35:25.011Z,13.10
2019-03-03T21:37:53.545Z,13.00
2019-03-03T21:40:28.540Z,12.90
2019-03-03T21:43:04.361Z,12.90
2019-03-03T21:45:33.066Z,12.80
2019-03-03T21:48:02.089Z,12.80
2019-03-03T21:50:31.331Z,12.80
2019-03-03T21:52:59.722Z,12.70
2019-03-03T21:55:28.210Z,12.80
2019-03-03T21:57:56.818Z,12.80
2019-03-03T22:00:42.278Z,12.80
2019-03-03T22:03:12.640Z,12.80
2019-03-03T22:05:41.225Z,12.90
2019-03-03T22:08:09.666Z,12.90
2019-03-03T22:10:40.596Z,12.80
2019-03-03T22:13:10.855Z,12.80
2019-03-03T22:15:41.021Z,12.80
2019-03-03T22:18:09.522Z,12.80
2019-03-03T22:20:38.042Z,12.80
2019-03-03T22:23:06.651Z,12.70
2019-03-03T22:25:35.163Z,12.80
2019-03-03T22:28:03.569Z,12.70
2019-03-03T22:30:32.137Z,12.70
2019-03-03T22:33:00.626Z,12.70
2019-03-03T22:35:29.462Z,12.70
2019-03-03T22:37:57.997Z,12.60
2019-03-03T22:40:26.753Z,12.60
2019-03-03T22:42:55.176Z,12.70
2019-03-03T22:45:24.223Z,12.70
2019-03-03T22:47:53.074Z,12.70
2019-03-03T22:50:22.253Z,12.70
2019-03-03T22:52:50.816Z,12.70
2019-03-03T22:55:21.270Z,12.70
2019-03-03T22:57:49.831Z,12.80
2019-03-03T23:00:44.577Z,12.80
2019-03-03T23:03:28.103Z,12.90
2019-03-03T23:06:17.873Z,12.80
2019-03-03T23:09:09.705Z,12.80
2019-03-03T23:11:53.278Z,12.90
2019-03-03T23:14:37.002Z,12.90
2019-03-03T23:17:11.412Z,12.90
2019-03-03T23:19:48.626Z,12.90
2019-03-03T23:22:41.409Z,13.00
2019-03-03T23:25:33.554Z,13.00
2019-03-03T23:28:02.207Z,13.00
2019-03-03T23:30:30.724Z,13.00
2019-03-03T23:32:59.241Z,13.00
2019-03-03T23:35:27.982Z,13.10
2019-03-03T23:37:56.414Z,13.10
2019-03-03T23:40:24.893Z,13.10
2019-03-03T23:42:53.480Z,13.10
2019-03-03T23:45:21.938Z,13.10
2019-03-03T23:47:50.490Z,13.10
2019-03-03T23:50:19.023Z,13.10
2019-03-03T23:52:47.922Z,13.10
2019-03-03T23:55:16.377Z,13.10
2019-03-03T23:57:45.010Z,13.10
